This is the latest recevied weather packets stored in our database for station/object G8PZT. If no packets are shown the sender has not sent any weather packets the latest 10 day(s).
| Time | Temp. | Humidity | Pressure | Rain* | Wind** | Luminosity | Snow |
|---|---|---|---|---|---|---|---|
| 1788082802 | 17.78° C | 50% | - | 0 mm | - | - | - |
| 1788082719 | 17.78° C | 50% | - | 0 mm | - | - | - |
| 1788082119 | 17.78° C | 50% | - | 0 mm | - | - | - |
| 1788081602 | 17.78° C | 50% | - | 0 mm | - | - | - |
| 1788081519 | 17.78° C | 50% | - | 0 mm | - | - | - |
| 1788080919 | 17.78° C | 50% | - | 0 mm | - | - | - |
| 1788080403 | 18.33° C | 49% | - | 0 mm | - | - | - |
| 1788080320 | 18.33° C | 49% | - | 0 mm | - | - | - |
| 1788079720 | 18.33° C | 49% | - | 0 mm | - | - | - |
| 1788079202 | 18.33° C | 50% | - | 0 mm | - | - | - |
| 1788079120 | 18.33° C | 51% | - | 0 mm | - | - | - |
| 1788078520 | 17.22° C | 53% | - | 0 mm | - | - | - |
| 1788078002 | 17.78° C | 52% | - | 0 mm | - | - | - |
| 1788077920 | 17.78° C | 53% | - | 0 mm | - | - | - |
| 1788077320 | 17.22° C | 53% | - | 0 mm | - | - | - |
| 1788076802 | 17.22° C | 55% | - | 0 mm | - | - | - |
| 1788076719 | 16.67° C | 55% | - | 0 mm | - | - | - |
| 1788076119 | 16.11° C | 57% | - | 0 mm | - | - | - |
| 1788075602 | 16.67° C | 55% | - | 0 mm | - | - | - |
| 1788075519 | 16.67° C | 55% | - | 0 mm | - | - | - |
| 1788074919 | 16.11° C | 60% | - | 0 mm | - | - | - |
| 1788074403 | 15.56° C | 65% | - | 0 mm | - | - | - |
| 1788074319 | 15.56° C | 65% | - | 0 mm | - | - | - |
| 1788073719 | 14.44° C | 66% | - | 0 mm | - | - | - |
| 1788073202 | 15° C | 64% | - | 0 mm | - | - | - |
* Rain latest hour (hover to see other rain measurements)
** Current wind speed in m/s (hover to see current wind gust speed)